sensor_id;sensor_type;location;lat;lon;timestamp;P1;durP1;ratioP1;P2;durP2;ratioP2
51995;SDS011;38010;53.264;6.592;2022-12-29T00:01:30;0.68;;;0.50;;
51995;SDS011;38010;53.264;6.592;2022-12-29T00:03:57;0.50;;;0.50;;
51995;SDS011;38010;53.264;6.592;2022-12-29T00:06:22;0.47;;;0.47;;
51995;SDS011;38010;53.264;6.592;2022-12-29T00:08:48;0.93;;;0.50;;
51995;SDS011;38010;53.264;6.592;2022-12-29T00:11:15;0.60;;;0.60;;
51995;SDS011;38010;53.264;6.592;2022-12-29T00:13:43;0.50;;;0.43;;
51995;SDS011;38010;53.264;6.592;2022-12-29T00:16:28;0.50;;;0.50;;
51995;SDS011;38010;53.264;6.592;2022-12-29T00:18:54;1.15;;;0.40;;
51995;SDS011;38010;53.264;6.592;2022-12-29T00:21:20;2.17;;;0.57;;
51995;SDS011;38010;53.264;6.592;2022-12-29T00:24:06;0.40;;;0.40;;
51995;SDS011;38010;53.264;6.592;2022-12-29T00:29:41;1.00;;;0.60;;
51995;SDS011;38010;53.264;6.592;2022-12-29T00:32:25;0.52;;;0.50;;
51995;SDS011;38010;53.264;6.592;2022-12-29T00:35:10;0.82;;;0.50;;
51995;SDS011;38010;53.264;6.592;2022-12-29T00:37:40;0.68;;;0.68;;
51995;SDS011;38010;53.264;6.592;2022-12-29T00:40:27;0.70;;;0.50;;
51995;SDS011;38010;53.264;6.592;2022-12-29T00:43:11;0.40;;;0.40;;
51995;SDS011;38010;53.264;6.592;2022-12-29T00:45:55;0.75;;;0.68;;
51995;SDS011;38010;53.264;6.592;2022-12-29T00:48:21;0.40;;;0.40;;
51995;SDS011;38010;53.264;6.592;2022-12-29T00:51:06;0.47;;;0.47;;
51995;SDS011;38010;53.264;6.592;2022-12-29T00:53:32;0.40;;;0.40;;
51995;SDS011;38010;53.264;6.592;2022-12-29T00:55:58;1.42;;;0.50;;
51995;SDS011;38010;53.264;6.592;2022-12-29T00:58:26;0.60;;;0.50;;
51995;SDS011;38010;53.264;6.592;2022-12-29T01:01:05;0.63;;;0.63;;
51995;SDS011;38010;53.264;6.592;2022-12-29T01:03:33;0.40;;;0.40;;
51995;SDS011;38010;53.264;6.592;2022-12-29T01:06:00;0.40;;;0.40;;
51995;SDS011;38010;53.264;6.592;2022-12-29T01:08:27;0.82;;;0.50;;
51995;SDS011;38010;53.264;6.592;2022-12-29T01:11:07;0.50;;;0.40;;
51995;SDS011;38010;53.264;6.592;2022-12-29T01:13:34;0.40;;;0.40;;
51995;SDS011;38010;53.264;6.592;2022-12-29T01:16:01;0.40;;;0.40;;
51995;SDS011;38010;53.264;6.592;2022-12-29T01:18:27;0.80;;;0.77;;
51995;SDS011;38010;53.264;6.592;2022-12-29T01:21:03;0.50;;;0.50;;
51995;SDS011;38010;53.264;6.592;2022-12-29T01:23:30;0.60;;;0.40;;
51995;SDS011;38010;53.264;6.592;2022-12-29T01:25:57;0.95;;;0.50;;
51995;SDS011;38010;53.264;6.592;2022-12-29T01:28:32;0.50;;;0.50;;
51995;SDS011;38010;53.264;6.592;2022-12-29T01:30:59;0.40;;;0.40;;
51995;SDS011;38010;53.264;6.592;2022-12-29T01:33:26;0.95;;;0.52;;
51995;SDS011;38010;53.264;6.592;2022-12-29T01:35:51;0.55;;;0.40;;
51995;SDS011;38010;53.264;6.592;2022-12-29T01:38:17;0.98;;;0.50;;
51995;SDS011;38010;53.264;6.592;2022-12-29T01:40:43;0.40;;;0.40;;
51995;SDS011;38010;53.264;6.592;2022-12-29T01:43:11;0.50;;;0.50;;
51995;SDS011;38010;53.264;6.592;2022-12-29T01:45:40;0.45;;;0.40;;
51995;SDS011;38010;53.264;6.592;2022-12-29T01:48:13;0.75;;;0.50;;
51995;SDS011;38010;53.264;6.592;2022-12-29T01:50:41;0.30;;;0.30;;
51995;SDS011;38010;53.264;6.592;2022-12-29T01:53:13;0.50;;;0.50;;
51995;SDS011;38010;53.264;6.592;2022-12-29T01:55:44;0.95;;;0.60;;
51995;SDS011;38010;53.264;6.592;2022-12-29T01:58:18;0.40;;;0.40;;
51995;SDS011;38010;53.264;6.592;2022-12-29T02:00:46;0.60;;;0.50;;
51995;SDS011;38010;53.264;6.592;2022-12-29T02:03:12;0.50;;;0.50;;
51995;SDS011;38010;53.264;6.592;2022-12-29T02:05:49;0.45;;;0.38;;
51995;SDS011;38010;53.264;6.592;2022-12-29T02:08:26;0.80;;;0.47;;
51995;SDS011;38010;53.264;6.592;2022-12-29T02:10:54;0.40;;;0.40;;
51995;SDS011;38010;53.264;6.592;2022-12-29T02:13:23;0.70;;;0.60;;
51995;SDS011;38010;53.264;6.592;2022-12-29T02:21:41;0.40;;;0.40;;
51995;SDS011;38010;53.264;6.592;2022-12-29T02:26:58;0.40;;;0.40;;
51995;SDS011;38010;53.264;6.592;2022-12-29T02:40:46;0.38;;;0.38;;
51995;SDS011;38010;53.264;6.592;2022-12-29T02:43:35;0.68;;;0.50;;
51995;SDS011;38010;53.264;6.592;2022-12-29T02:46:25;0.40;;;0.40;;
51995;SDS011;38010;53.264;6.592;2022-12-29T02:49:00;0.50;;;0.50;;
51995;SDS011;38010;53.264;6.592;2022-12-29T02:52:01;0.40;;;0.40;;
51995;SDS011;38010;53.264;6.592;2022-12-29T02:54:27;0.85;;;0.45;;
51995;SDS011;38010;53.264;6.592;2022-12-29T02:57:26;0.60;;;0.30;;
51995;SDS011;38010;53.264;6.592;2022-12-29T03:00:00;0.52;;;0.50;;
51995;SDS011;38010;53.264;6.592;2022-12-29T03:05:18;0.50;;;0.40;;
51995;SDS011;38010;53.264;6.592;2022-12-29T03:09:16;0.77;;;0.40;;
51995;SDS011;38010;53.264;6.592;2022-12-29T03:11:15;0.60;;;0.50;;
51995;SDS011;38010;53.264;6.592;2022-12-29T03:14:34;0.43;;;0.40;;
51995;SDS011;38010;53.264;6.592;2022-12-29T03:17:27;0.50;;;0.50;;
51995;SDS011;38010;53.264;6.592;2022-12-29T03:19:53;0.47;;;0.40;;
51995;SDS011;38010;53.264;6.592;2022-12-29T03:22:27;0.95;;;0.40;;
51995;SDS011;38010;53.264;6.592;2022-12-29T03:27:42;0.40;;;0.40;;
51995;SDS011;38010;53.264;6.592;2022-12-29T03:30:12;0.50;;;0.50;;
51995;SDS011;38010;53.264;6.592;2022-12-29T03:32:40;0.40;;;0.40;;
51995;SDS011;38010;53.264;6.592;2022-12-29T03:35:10;0.65;;;0.50;;
51995;SDS011;38010;53.264;6.592;2022-12-29T03:37:40;0.55;;;0.40;;
51995;SDS011;38010;53.264;6.592;2022-12-29T03:40:10;0.40;;;0.40;;
51995;SDS011;38010;53.264;6.592;2022-12-29T03:42:37;0.40;;;0.40;;
51995;SDS011;38010;53.264;6.592;2022-12-29T03:45:04;0.40;;;0.40;;
51995;SDS011;38010;53.264;6.592;2022-12-29T03:47:32;0.50;;;0.50;;
51995;SDS011;38010;53.264;6.592;2022-12-29T03:49:58;0.30;;;0.30;;
51995;SDS011;38010;53.264;6.592;2022-12-29T03:52:23;0.57;;;0.50;;
51995;SDS011;38010;53.264;6.592;2022-12-29T03:54:49;0.40;;;0.40;;
51995;SDS011;38010;53.264;6.592;2022-12-29T03:57:15;0.60;;;0.40;;
51995;SDS011;38010;53.264;6.592;2022-12-29T03:59:40;0.30;;;0.30;;
51995;SDS011;38010;53.264;6.592;2022-12-29T04:02:06;0.50;;;0.45;;
51995;SDS011;38010;53.264;6.592;2022-12-29T04:04:32;1.20;;;0.40;;
51995;SDS011;38010;53.264;6.592;2022-12-29T04:06:57;0.63;;;0.40;;
51995;SDS011;38010;53.264;6.592;2022-12-29T04:09:23;0.40;;;0.40;;
51995;SDS011;38010;53.264;6.592;2022-12-29T04:11:49;0.63;;;0.40;;
51995;SDS011;38010;53.264;6.592;2022-12-29T04:14:14;0.40;;;0.35;;
51995;SDS011;38010;53.264;6.592;2022-12-29T04:16:40;0.40;;;0.40;;
51995;SDS011;38010;53.264;6.592;2022-12-29T04:19:06;0.35;;;0.30;;
51995;SDS011;38010;53.264;6.592;2022-12-29T04:21:32;0.73;;;0.30;;
51995;SDS011;38010;53.264;6.592;2022-12-29T04:23:58;0.30;;;0.30;;
51995;SDS011;38010;53.264;6.592;2022-12-29T04:26:24;0.40;;;0.40;;
51995;SDS011;38010;53.264;6.592;2022-12-29T04:28:50;0.80;;;0.35;;
51995;SDS011;38010;53.264;6.592;2022-12-29T04:31:16;0.40;;;0.40;;
51995;SDS011;38010;53.264;6.592;2022-12-29T04:33:41;0.40;;;0.40;;
51995;SDS011;38010;53.264;6.592;2022-12-29T04:36:07;0.57;;;0.50;;
51995;SDS011;38010;53.264;6.592;2022-12-29T04:38:33;0.30;;;0.30;;
51995;SDS011;38010;53.264;6.592;2022-12-29T04:40:59;0.70;;;0.50;;
51995;SDS011;38010;53.264;6.592;2022-12-29T04:43:25;0.90;;;0.43;;
51995;SDS011;38010;53.264;6.592;2022-12-29T04:45:51;0.45;;;0.32;;
51995;SDS011;38010;53.264;6.592;2022-12-29T04:48:17;0.32;;;0.30;;
51995;SDS011;38010;53.264;6.592;2022-12-29T04:50:43;0.50;;;0.50;;
51995;SDS011;38010;53.264;6.592;2022-12-29T04:53:09;1.52;;;0.30;;
51995;SDS011;38010;53.264;6.592;2022-12-29T04:55:34;0.40;;;0.40;;
51995;SDS011;38010;53.264;6.592;2022-12-29T04:58:00;0.57;;;0.30;;
51995;SDS011;38010;53.264;6.592;2022-12-29T05:00:26;0.40;;;0.38;;
51995;SDS011;38010;53.264;6.592;2022-12-29T05:02:51;0.47;;;0.38;;
51995;SDS011;38010;53.264;6.592;2022-12-29T05:05:17;0.52;;;0.40;;
51995;SDS011;38010;53.264;6.592;2022-12-29T05:07:43;0.45;;;0.40;;
51995;SDS011;38010;53.264;6.592;2022-12-29T05:10:09;0.63;;;0.40;;
51995;SDS011;38010;53.264;6.592;2022-12-29T05:12:36;0.80;;;0.40;;
51995;SDS011;38010;53.264;6.592;2022-12-29T05:15:02;0.75;;;0.45;;
51995;SDS011;38010;53.264;6.592;2022-12-29T05:17:29;0.55;;;0.40;;
51995;SDS011;38010;53.264;6.592;2022-12-29T05:19:55;0.63;;;0.40;;
51995;SDS011;38010;53.264;6.592;2022-12-29T05:22:22;1.02;;;0.40;;
51995;SDS011;38010;53.264;6.592;2022-12-29T05:24:48;0.65;;;0.30;;
51995;SDS011;38010;53.264;6.592;2022-12-29T05:27:13;1.35;;;0.50;;
51995;SDS011;38010;53.264;6.592;2022-12-29T05:29:39;0.95;;;0.55;;
51995;SDS011;38010;53.264;6.592;2022-12-29T05:32:05;0.93;;;0.50;;
51995;SDS011;38010;53.264;6.592;2022-12-29T05:34:30;0.95;;;0.50;;
51995;SDS011;38010;53.264;6.592;2022-12-29T05:36:56;1.10;;;0.40;;
51995;SDS011;38010;53.264;6.592;2022-12-29T05:39:22;0.80;;;0.47;;
51995;SDS011;38010;53.264;6.592;2022-12-29T05:41:48;1.08;;;0.40;;
51995;SDS011;38010;53.264;6.592;2022-12-29T05:44:13;0.80;;;0.40;;
51995;SDS011;38010;53.264;6.592;2022-12-29T05:46:39;0.70;;;0.40;;
51995;SDS011;38010;53.264;6.592;2022-12-29T05:49:05;0.93;;;0.50;;
51995;SDS011;38010;53.264;6.592;2022-12-29T05:51:31;0.47;;;0.38;;
51995;SDS011;38010;53.264;6.592;2022-12-29T05:53:57;0.95;;;0.40;;
51995;SDS011;38010;53.264;6.592;2022-12-29T05:56:22;0.88;;;0.40;;
51995;SDS011;38010;53.264;6.592;2022-12-29T05:58:48;1.50;;;0.40;;
51995;SDS011;38010;53.264;6.592;2022-12-29T06:01:14;0.95;;;0.50;;
51995;SDS011;38010;53.264;6.592;2022-12-29T06:03:40;2.03;;;0.63;;
51995;SDS011;38010;53.264;6.592;2022-12-29T06:06:05;1.58;;;0.40;;
51995;SDS011;38010;53.264;6.592;2022-12-29T06:08:32;1.42;;;0.50;;
51995;SDS011;38010;53.264;6.592;2022-12-29T06:10:57;1.38;;;0.60;;
51995;SDS011;38010;53.264;6.592;2022-12-29T06:13:23;1.42;;;0.50;;
51995;SDS011;38010;53.264;6.592;2022-12-29T06:15:49;2.00;;;0.52;;
51995;SDS011;38010;53.264;6.592;2022-12-29T06:18:15;1.98;;;0.50;;
51995;SDS011;38010;53.264;6.592;2022-12-29T06:20:41;1.30;;;0.60;;
51995;SDS011;38010;53.264;6.592;2022-12-29T06:23:07;1.42;;;0.75;;
51995;SDS011;38010;53.264;6.592;2022-12-29T06:25:33;0.95;;;0.40;;
51995;SDS011;38010;53.264;6.592;2022-12-29T06:27:59;0.63;;;0.40;;
51995;SDS011;38010;53.264;6.592;2022-12-29T06:30:25;1.52;;;0.50;;
51995;SDS011;38010;53.264;6.592;2022-12-29T06:32:51;1.13;;;0.50;;
51995;SDS011;38010;53.264;6.592;2022-12-29T06:35:17;1.02;;;0.60;;
51995;SDS011;38010;53.264;6.592;2022-12-29T06:37:43;2.13;;;0.80;;
51995;SDS011;38010;53.264;6.592;2022-12-29T06:40:09;2.35;;;0.80;;
51995;SDS011;38010;53.264;6.592;2022-12-29T06:42:36;0.95;;;0.60;;
51995;SDS011;38010;53.264;6.592;2022-12-29T06:45:02;0.95;;;0.65;;
51995;SDS011;38010;53.264;6.592;2022-12-29T06:47:28;0.80;;;0.50;;
51995;SDS011;38010;53.264;6.592;2022-12-29T06:49:54;0.95;;;0.73;;
51995;SDS011;38010;53.264;6.592;2022-12-29T06:52:20;1.42;;;0.75;;
51995;SDS011;38010;53.264;6.592;2022-12-29T06:54:45;1.10;;;0.40;;
51995;SDS011;38010;53.264;6.592;2022-12-29T06:57:11;1.40;;;0.70;;
51995;SDS011;38010;53.264;6.592;2022-12-29T06:59:37;1.58;;;0.52;;
51995;SDS011;38010;53.264;6.592;2022-12-29T07:02:03;2.90;;;0.60;;
51995;SDS011;38010;53.264;6.592;2022-12-29T07:04:29;0.90;;;0.65;;
51995;SDS011;38010;53.264;6.592;2022-12-29T07:06:54;2.78;;;0.80;;
51995;SDS011;38010;53.264;6.592;2022-12-29T07:09:20;2.53;;;0.90;;
51995;SDS011;38010;53.264;6.592;2022-12-29T07:11:46;2.03;;;0.90;;
51995;SDS011;38010;53.264;6.592;2022-12-29T07:14:11;1.17;;;0.65;;
51995;SDS011;38010;53.264;6.592;2022-12-29T07:16:37;1.67;;;0.70;;
51995;SDS011;38010;53.264;6.592;2022-12-29T07:19:03;1.98;;;0.57;;
51995;SDS011;38010;53.264;6.592;2022-12-29T07:21:29;1.17;;;0.70;;
51995;SDS011;38010;53.264;6.592;2022-12-29T07:23:55;2.05;;;0.60;;
51995;SDS011;38010;53.264;6.592;2022-12-29T07:26:21;2.17;;;0.88;;
51995;SDS011;38010;53.264;6.592;2022-12-29T07:28:47;1.33;;;0.70;;
51995;SDS011;38010;53.264;6.592;2022-12-29T07:31:16;2.03;;;0.82;;
51995;SDS011;38010;53.264;6.592;2022-12-29T07:33:44;3.03;;;1.30;;
51995;SDS011;38010;53.264;6.592;2022-12-29T07:36:11;1.52;;;0.60;;
51995;SDS011;38010;53.264;6.592;2022-12-29T07:38:37;2.70;;;0.80;;
51995;SDS011;38010;53.264;6.592;2022-12-29T07:41:03;2.33;;;0.77;;
51995;SDS011;38010;53.264;6.592;2022-12-29T07:43:29;2.33;;;0.98;;
51995;SDS011;38010;53.264;6.592;2022-12-29T07:45:55;1.15;;;0.68;;
51995;SDS011;38010;53.264;6.592;2022-12-29T07:48:21;1.67;;;0.70;;
51995;SDS011;38010;53.264;6.592;2022-12-29T07:50:47;1.02;;;0.52;;
51995;SDS011;38010;53.264;6.592;2022-12-29T07:53:12;1.90;;;0.70;;
51995;SDS011;38010;53.264;6.592;2022-12-29T07:55:38;2.13;;;0.80;;
51995;SDS011;38010;53.264;6.592;2022-12-29T07:58:04;1.40;;;0.90;;
51995;SDS011;38010;53.264;6.592;2022-12-29T08:00:30;1.67;;;0.63;;
51995;SDS011;38010;53.264;6.592;2022-12-29T08:02:56;1.13;;;0.68;;
51995;SDS011;38010;53.264;6.592;2022-12-29T08:05:21;2.20;;;0.70;;
51995;SDS011;38010;53.264;6.592;2022-12-29T08:07:47;3.00;;;0.75;;
51995;SDS011;38010;53.264;6.592;2022-12-29T08:10:13;1.38;;;0.70;;
51995;SDS011;38010;53.264;6.592;2022-12-29T08:12:40;2.42;;;0.73;;
51995;SDS011;38010;53.264;6.592;2022-12-29T08:15:07;3.03;;;0.98;;
51995;SDS011;38010;53.264;6.592;2022-12-29T08:17:34;2.15;;;0.88;;
51995;SDS011;38010;53.264;6.592;2022-12-29T08:20:00;2.65;;;0.90;;
51995;SDS011;38010;53.264;6.592;2022-12-29T08:22:26;2.58;;;0.75;;
51995;SDS011;38010;53.264;6.592;2022-12-29T08:24:51;3.45;;;0.80;;
51995;SDS011;38010;53.264;6.592;2022-12-29T08:27:17;1.58;;;0.90;;
51995;SDS011;38010;53.264;6.592;2022-12-29T08:29:43;2.00;;;0.80;;
51995;SDS011;38010;53.264;6.592;2022-12-29T08:32:09;3.47;;;1.05;;
51995;SDS011;38010;53.264;6.592;2022-12-29T08:34:35;1.92;;;1.10;;
51995;SDS011;38010;53.264;6.592;2022-12-29T08:37:01;1.42;;;0.80;;
51995;SDS011;38010;53.264;6.592;2022-12-29T08:39:27;2.78;;;0.85;;
51995;SDS011;38010;53.264;6.592;2022-12-29T08:41:53;2.50;;;0.90;;
51995;SDS011;38010;53.264;6.592;2022-12-29T08:44:19;3.25;;;1.20;;
51995;SDS011;38010;53.264;6.592;2022-12-29T08:46:45;4.75;;;1.05;;
51995;SDS011;38010;53.264;6.592;2022-12-29T08:49:11;2.55;;;0.90;;
51995;SDS011;38010;53.264;6.592;2022-12-29T08:51:37;2.42;;;1.00;;
51995;SDS011;38010;53.264;6.592;2022-12-29T08:54:03;2.67;;;1.08;;
51995;SDS011;38010;53.264;6.592;2022-12-29T08:56:28;4.82;;;0.90;;
51995;SDS011;38010;53.264;6.592;2022-12-29T08:58:54;1.90;;;0.93;;
51995;SDS011;38010;53.264;6.592;2022-12-29T09:01:20;2.75;;;0.90;;
51995;SDS011;38010;53.264;6.592;2022-12-29T09:03:46;1.83;;;1.00;;
51995;SDS011;38010;53.264;6.592;2022-12-29T09:06:13;2.13;;;1.00;;
51995;SDS011;38010;53.264;6.592;2022-12-29T09:08:40;3.28;;;1.00;;
51995;SDS011;38010;53.264;6.592;2022-12-29T09:11:27;2.92;;;0.88;;
51995;SDS011;38010;53.264;6.592;2022-12-29T09:13:52;2.47;;;1.05;;
51995;SDS011;38010;53.264;6.592;2022-12-29T09:16:18;4.30;;;1.23;;
51995;SDS011;38010;53.264;6.592;2022-12-29T09:18:47;2.85;;;0.90;;
51995;SDS011;38010;53.264;6.592;2022-12-29T09:21:12;2.95;;;0.90;;
51995;SDS011;38010;53.264;6.592;2022-12-29T09:23:38;2.65;;;0.90;;
51995;SDS011;38010;53.264;6.592;2022-12-29T09:26:05;3.25;;;1.10;;
51995;SDS011;38010;53.264;6.592;2022-12-29T09:28:32;4.25;;;0.95;;
51995;SDS011;38010;53.264;6.592;2022-12-29T09:30:58;1.80;;;0.95;;
51995;SDS011;38010;53.264;6.592;2022-12-29T09:33:24;1.98;;;0.80;;
51995;SDS011;38010;53.264;6.592;2022-12-29T09:36:00;2.83;;;1.08;;
51995;SDS011;38010;53.264;6.592;2022-12-29T09:38:27;5.25;;;1.20;;
51995;SDS011;38010;53.264;6.592;2022-12-29T09:40:57;2.90;;;0.93;;
51995;SDS011;38010;53.264;6.592;2022-12-29T09:46:27;2.75;;;0.90;;
51995;SDS011;38010;53.264;6.592;2022-12-29T09:51:29;1.85;;;0.90;;
51995;SDS011;38010;53.264;6.592;2022-12-29T09:53:57;1.98;;;0.80;;
51995;SDS011;38010;53.264;6.592;2022-12-29T09:56:27;4.03;;;1.30;;
51995;SDS011;38010;53.264;6.592;2022-12-29T09:59:08;4.60;;;1.25;;
51995;SDS011;38010;53.264;6.592;2022-12-29T10:01:44;2.63;;;0.93;;
51995;SDS011;38010;53.264;6.592;2022-12-29T10:04:16;2.30;;;0.80;;
51995;SDS011;38010;53.264;6.592;2022-12-29T10:06:54;1.65;;;0.77;;
51995;SDS011;38010;53.264;6.592;2022-12-29T10:15:20;2.70;;;0.88;;
51995;SDS011;38010;53.264;6.592;2022-12-29T10:18:38;2.22;;;1.00;;
51995;SDS011;38010;53.264;6.592;2022-12-29T10:21:07;1.55;;;0.90;;
51995;SDS011;38010;53.264;6.592;2022-12-29T10:23:42;4.35;;;1.00;;
51995;SDS011;38010;53.264;6.592;2022-12-29T10:26:20;3.38;;;1.17;;
51995;SDS011;38010;53.264;6.592;2022-12-29T10:28:56;3.10;;;1.08;;
51995;SDS011;38010;53.264;6.592;2022-12-29T10:31:30;2.80;;;1.02;;
51995;SDS011;38010;53.264;6.592;2022-12-29T10:36:53;2.70;;;0.88;;
51995;SDS011;38010;53.264;6.592;2022-12-29T10:44:46;3.30;;;0.80;;
51995;SDS011;38010;53.264;6.592;2022-12-29T10:47:14;3.80;;;1.02;;
51995;SDS011;38010;53.264;6.592;2022-12-29T10:49:44;3.22;;;1.00;;
51995;SDS011;38010;53.264;6.592;2022-12-29T10:52:11;3.25;;;0.88;;
51995;SDS011;38010;53.264;6.592;2022-12-29T10:54:48;2.17;;;0.80;;
51995;SDS011;38010;53.264;6.592;2022-12-29T10:59:57;1.98;;;0.70;;
51995;SDS011;38010;53.264;6.592;2022-12-29T11:02:41;2.05;;;0.90;;
51995;SDS011;38010;53.264;6.592;2022-12-29T11:05:49;1.90;;;0.82;;
51995;SDS011;38010;53.264;6.592;2022-12-29T11:13:27;1.98;;;0.70;;
51995;SDS011;38010;53.264;6.592;2022-12-29T11:15:54;1.83;;;0.60;;
51995;SDS011;38010;53.264;6.592;2022-12-29T11:18:21;2.35;;;0.70;;
51995;SDS011;38010;53.264;6.592;2022-12-29T11:20:48;1.70;;;0.90;;
51995;SDS011;38010;53.264;6.592;2022-12-29T11:23:23;1.92;;;0.77;;
51995;SDS011;38010;53.264;6.592;2022-12-29T11:26:05;2.72;;;0.88;;
51995;SDS011;38010;53.264;6.592;2022-12-29T11:29:03;2.47;;;1.13;;
51995;SDS011;38010;53.264;6.592;2022-12-29T11:34:08;1.77;;;0.80;;
51995;SDS011;38010;53.264;6.592;2022-12-29T11:36:46;2.65;;;0.73;;
51995;SDS011;38010;53.264;6.592;2022-12-29T11:39:34;2.20;;;0.80;;
51995;SDS011;38010;53.264;6.592;2022-12-29T11:42:05;3.47;;;0.88;;
51995;SDS011;38010;53.264;6.592;2022-12-29T11:44:36;2.95;;;1.02;;
51995;SDS011;38010;53.264;6.592;2022-12-29T11:47:07;3.92;;;1.15;;
51995;SDS011;38010;53.264;6.592;2022-12-29T11:49:37;1.70;;;0.80;;
51995;SDS011;38010;53.264;6.592;2022-12-29T11:52:03;1.35;;;0.82;;
51995;SDS011;38010;53.264;6.592;2022-12-29T11:54:34;2.50;;;0.80;;
51995;SDS011;38010;53.264;6.592;2022-12-29T11:59:43;1.85;;;0.90;;
51995;SDS011;38010;53.264;6.592;2022-12-29T12:04:54;1.67;;;1.02;;
51995;SDS011;38010;53.264;6.592;2022-12-29T12:07:34;2.42;;;0.90;;
51995;SDS011;38010;53.264;6.592;2022-12-29T12:18:47;2.28;;;1.13;;
51995;SDS011;38010;53.264;6.592;2022-12-29T12:21:18;2.28;;;0.82;;
51995;SDS011;38010;53.264;6.592;2022-12-29T12:35:23;2.40;;;1.10;;
51995;SDS011;38010;53.264;6.592;2022-12-29T12:41:07;5.65;;;2.58;;
51995;SDS011;38010;53.264;6.592;2022-12-29T12:43:57;4.65;;;3.33;;
51995;SDS011;38010;53.264;6.592;2022-12-29T12:46:45;5.20;;;4.07;;
51995;SDS011;38010;53.264;6.592;2022-12-29T12:49:32;5.85;;;4.18;;
51995;SDS011;38010;53.264;6.592;2022-12-29T12:55:06;7.13;;;4.32;;
51995;SDS011;38010;53.264;6.592;2022-12-29T12:58:11;7.28;;;5.13;;
51995;SDS011;38010;53.264;6.592;2022-12-29T13:01:01;8.02;;;4.85;;
51995;SDS011;38010;53.264;6.592;2022-12-29T13:14:28;6.25;;;5.13;;
51995;SDS011;38010;53.264;6.592;2022-12-29T13:17:03;6.32;;;4.65;;
51995;SDS011;38010;53.264;6.592;2022-12-29T13:19:43;7.22;;;5.03;;
51995;SDS011;38010;53.264;6.592;2022-12-29T13:22:28;6.78;;;5.15;;
51995;SDS011;38010;53.264;6.592;2022-12-29T13:41:54;5.60;;;3.92;;
51995;SDS011;38010;53.264;6.592;2022-12-29T13:44:43;5.43;;;3.88;;
51995;SDS011;38010;53.264;6.592;2022-12-29T13:49:42;6.60;;;4.07;;
51995;SDS011;38010;53.264;6.592;2022-12-29T13:55:33;5.10;;;3.58;;
51995;SDS011;38010;53.264;6.592;2022-12-29T14:00:28;5.75;;;3.30;;
51995;SDS011;38010;53.264;6.592;2022-12-29T14:03:35;5.25;;;3.70;;
51995;SDS011;38010;53.264;6.592;2022-12-29T14:06:28;6.15;;;3.78;;
51995;SDS011;38010;53.264;6.592;2022-12-29T14:08:57;3.90;;;3.00;;
51995;SDS011;38010;53.264;6.592;2022-12-29T14:11:32;3.75;;;2.40;;
51995;SDS011;38010;53.264;6.592;2022-12-29T14:13:59;4.28;;;2.40;;
51995;SDS011;38010;53.264;6.592;2022-12-29T14:16:36;4.15;;;2.50;;
51995;SDS011;38010;53.264;6.592;2022-12-29T14:19:16;5.03;;;2.95;;
51995;SDS011;38010;53.264;6.592;2022-12-29T14:21:57;3.55;;;2.50;;
51995;SDS011;38010;53.264;6.592;2022-12-29T14:26:59;3.92;;;2.58;;
51995;SDS011;38010;53.264;6.592;2022-12-29T14:34:53;3.47;;;2.35;;
51995;SDS011;38010;53.264;6.592;2022-12-29T14:42:43;2.88;;;2.15;;
51995;SDS011;38010;53.264;6.592;2022-12-29T14:47:59;3.20;;;1.95;;
51995;SDS011;38010;53.264;6.592;2022-12-29T14:50:42;3.47;;;1.92;;
51995;SDS011;38010;53.264;6.592;2022-12-29T14:53:40;3.95;;;1.95;;
51995;SDS011;38010;53.264;6.592;2022-12-29T14:56:09;3.33;;;1.90;;
51995;SDS011;38010;53.264;6.592;2022-12-29T14:58:58;2.90;;;1.88;;
51995;SDS011;38010;53.264;6.592;2022-12-29T15:01:39;2.58;;;1.40;;
51995;SDS011;38010;53.264;6.592;2022-12-29T15:04:18;3.17;;;1.85;;
51995;SDS011;38010;53.264;6.592;2022-12-29T15:06:47;2.83;;;1.67;;
51995;SDS011;38010;53.264;6.592;2022-12-29T15:09:17;2.85;;;1.50;;
51995;SDS011;38010;53.264;6.592;2022-12-29T15:15:18;3.03;;;1.50;;
51995;SDS011;38010;53.264;6.592;2022-12-29T15:17:49;3.10;;;1.42;;
51995;SDS011;38010;53.264;6.592;2022-12-29T15:20:20;3.53;;;1.77;;
51995;SDS011;38010;53.264;6.592;2022-12-29T15:22:48;4.07;;;1.90;;
51995;SDS011;38010;53.264;6.592;2022-12-29T15:25:52;4.78;;;1.88;;
51995;SDS011;38010;53.264;6.592;2022-12-29T15:28:21;3.28;;;1.40;;
51995;SDS011;38010;53.264;6.592;2022-12-29T15:31:08;2.58;;;1.48;;
51995;SDS011;38010;53.264;6.592;2022-12-29T15:33:39;3.08;;;1.25;;
51995;SDS011;38010;53.264;6.592;2022-12-29T15:36:10;2.45;;;1.40;;
51995;SDS011;38010;53.264;6.592;2022-12-29T15:38:44;2.40;;;1.48;;
51995;SDS011;38010;53.264;6.592;2022-12-29T15:44:25;2.63;;;1.23;;
51995;SDS011;38010;53.264;6.592;2022-12-29T15:46:57;3.30;;;1.30;;
51995;SDS011;38010;53.264;6.592;2022-12-29T15:49:27;3.33;;;1.40;;
51995;SDS011;38010;53.264;6.592;2022-12-29T15:51:53;3.72;;;1.30;;
51995;SDS011;38010;53.264;6.592;2022-12-29T15:54:20;4.15;;;1.55;;
51995;SDS011;38010;53.264;6.592;2022-12-29T15:56:47;2.78;;;1.52;;
51995;SDS011;38010;53.264;6.592;2022-12-29T15:59:33;4.43;;;1.40;;
51995;SDS011;38010;53.264;6.592;2022-12-29T16:02:00;4.68;;;1.58;;
51995;SDS011;38010;53.264;6.592;2022-12-29T16:04:28;4.13;;;1.10;;
51995;SDS011;38010;53.264;6.592;2022-12-29T16:09:42;3.35;;;1.38;;
51995;SDS011;38010;53.264;6.592;2022-12-29T16:12:19;2.47;;;1.20;;
51995;SDS011;38010;53.264;6.592;2022-12-29T16:14:48;2.50;;;1.17;;
51995;SDS011;38010;53.264;6.592;2022-12-29T16:17:24;3.13;;;1.08;;
51995;SDS011;38010;53.264;6.592;2022-12-29T16:19:55;2.55;;;1.00;;
51995;SDS011;38010;53.264;6.592;2022-12-29T16:25:06;3.63;;;1.20;;
51995;SDS011;38010;53.264;6.592;2022-12-29T16:27:57;2.35;;;1.00;;
51995;SDS011;38010;53.264;6.592;2022-12-29T16:30:28;3.50;;;1.10;;
51995;SDS011;38010;53.264;6.592;2022-12-29T16:32:57;2.20;;;1.00;;
51995;SDS011;38010;53.264;6.592;2022-12-29T16:38:18;1.85;;;0.95;;
51995;SDS011;38010;53.264;6.592;2022-12-29T16:40:58;1.83;;;1.00;;
51995;SDS011;38010;53.264;6.592;2022-12-29T16:43:30;2.95;;;1.08;;
51995;SDS011;38010;53.264;6.592;2022-12-29T16:48:46;2.35;;;1.02;;
51995;SDS011;38010;53.264;6.592;2022-12-29T16:51:15;2.10;;;0.85;;
51995;SDS011;38010;53.264;6.592;2022-12-29T16:53:49;2.75;;;0.80;;
51995;SDS011;38010;53.264;6.592;2022-12-29T16:56:21;2.90;;;1.00;;
51995;SDS011;38010;53.264;6.592;2022-12-29T16:59:00;1.90;;;0.90;;
51995;SDS011;38010;53.264;6.592;2022-12-29T17:01:29;2.97;;;1.10;;
51995;SDS011;38010;53.264;6.592;2022-12-29T17:04:00;2.90;;;1.10;;
51995;SDS011;38010;53.264;6.592;2022-12-29T17:06:30;2.50;;;0.93;;
51995;SDS011;38010;53.264;6.592;2022-12-29T17:08:57;2.42;;;1.23;;
51995;SDS011;38010;53.264;6.592;2022-12-29T17:11:27;2.53;;;0.90;;
51995;SDS011;38010;53.264;6.592;2022-12-29T17:17:14;2.85;;;1.02;;
51995;SDS011;38010;53.264;6.592;2022-12-29T17:19:55;2.67;;;1.00;;
51995;SDS011;38010;53.264;6.592;2022-12-29T17:22:25;1.58;;;0.90;;
51995;SDS011;38010;53.264;6.592;2022-12-29T17:24:53;3.03;;;0.80;;
51995;SDS011;38010;53.264;6.592;2022-12-29T17:27:24;1.98;;;1.00;;
51995;SDS011;38010;53.264;6.592;2022-12-29T17:30:03;2.28;;;1.05;;
51995;SDS011;38010;53.264;6.592;2022-12-29T17:32:34;3.90;;;1.20;;
51995;SDS011;38010;53.264;6.592;2022-12-29T17:35:00;2.17;;;0.98;;
51995;SDS011;38010;53.264;6.592;2022-12-29T17:37:30;1.92;;;0.88;;
51995;SDS011;38010;53.264;6.592;2022-12-29T17:40:01;2.72;;;1.10;;
51995;SDS011;38010;53.264;6.592;2022-12-29T17:42:28;2.47;;;1.00;;
51995;SDS011;38010;53.264;6.592;2022-12-29T17:44:57;3.65;;;1.20;;
51995;SDS011;38010;53.264;6.592;2022-12-29T17:47:23;1.83;;;0.80;;
51995;SDS011;38010;53.264;6.592;2022-12-29T17:49:49;2.38;;;1.17;;
51995;SDS011;38010;53.264;6.592;2022-12-29T17:52:15;1.50;;;0.90;;
51995;SDS011;38010;53.264;6.592;2022-12-29T17:54:44;1.80;;;0.90;;